sensor_id;sensor_type;location;lat;lon;timestamp;temperature;humidity
22426;DHT22;11380;50.822;15.790;2022-10-18T00:00:48;12.00;1.00
22426;DHT22;11380;50.822;15.790;2022-10-18T00:05:55;11.80;1.00
22426;DHT22;11380;50.822;15.790;2022-10-18T00:11:00;11.60;1.00
22426;DHT22;11380;50.822;15.790;2022-10-18T00:16:12;12.00;1.00
22426;DHT22;11380;50.822;15.790;2022-10-18T00:21:20;12.30;1.00
22426;DHT22;11380;50.822;15.790;2022-10-18T00:26:27;12.30;1.00
22426;DHT22;11380;50.822;15.790;2022-10-18T00:31:37;11.90;1.00
22426;DHT22;11380;50.822;15.790;2022-10-18T00:36:44;11.70;1.00
22426;DHT22;11380;50.822;15.790;2022-10-18T00:41:49;11.80;1.00
22426;DHT22;11380;50.822;15.790;2022-10-18T00:47:06;11.80;1.00
22426;DHT22;11380;50.822;15.790;2022-10-18T00:52:17;11.60;1.00
22426;DHT22;11380;50.822;15.790;2022-10-18T00:57:24;11.50;1.00
22426;DHT22;11380;50.822;15.790;2022-10-18T01:02:31;11.40;1.00
22426;DHT22;11380;50.822;15.790;2022-10-18T01:07:52;11.50;1.00
22426;DHT22;11380;50.822;15.790;2022-10-18T01:18:24;11.40;1.00
22426;DHT22;11380;50.822;15.790;2022-10-18T01:34:57;11.10;1.00
22426;DHT22;11380;50.822;15.790;2022-10-18T01:40:04;11.10;1.00
22426;DHT22;11380;50.822;15.790;2022-10-18T01:45:12;11.00;1.00
22426;DHT22;11380;50.822;15.790;2022-10-18T01:50:34;10.70;1.00
22426;DHT22;11380;50.822;15.790;2022-10-18T01:55:39;10.70;1.00
22426;DHT22;11380;50.822;15.790;2022-10-18T02:00:47;11.00;1.00
22426;DHT22;11380;50.822;15.790;2022-10-18T02:05:57;11.00;1.00
22426;DHT22;11380;50.822;15.790;2022-10-18T02:11:07;10.80;1.00
22426;DHT22;11380;50.822;15.790;2022-10-18T02:16:16;10.90;1.30
22426;DHT22;11380;50.822;15.790;2022-10-18T02:21:22;10.80;1.00
22426;DHT22;11380;50.822;15.790;2022-10-18T02:26:29;10.70;1.00
22426;DHT22;11380;50.822;15.790;2022-10-18T02:31:46;10.70;1.00
22426;DHT22;11380;50.822;15.790;2022-10-18T02:36:57;10.70;1.00
22426;DHT22;11380;50.822;15.790;2022-10-18T02:42:05;10.70;1.00
22426;DHT22;11380;50.822;15.790;2022-10-18T02:47:11;10.50;2.10
22426;DHT22;11380;50.822;15.790;2022-10-18T02:52:16;10.50;55.40
22426;DHT22;11380;50.822;15.790;2022-10-18T02:57:22;10.60;21.20
22426;DHT22;11380;50.822;15.790;2022-10-18T03:02:29;10.60;1.00
22426;DHT22;11380;50.822;15.790;2022-10-18T03:07:34;10.40;99.90
22426;DHT22;11380;50.822;15.790;2022-10-18T03:12:39;10.70;99.90
22426;DHT22;11380;50.822;15.790;2022-10-18T03:17:45;10.50;99.90
22426;DHT22;11380;50.822;15.790;2022-10-18T03:22:50;10.40;1.00
22426;DHT22;11380;50.822;15.790;2022-10-18T03:27:56;10.30;99.90
22426;DHT22;11380;50.822;15.790;2022-10-18T03:33:01;10.10;1.00
22426;DHT22;11380;50.822;15.790;2022-10-18T03:38:06;10.00;27.90
22426;DHT22;11380;50.822;15.790;2022-10-18T03:43:12;10.00;99.90
22426;DHT22;11380;50.822;15.790;2022-10-18T03:48:18;10.00;99.90
22426;DHT22;11380;50.822;15.790;2022-10-18T03:53:23;10.10;39.50
22426;DHT22;11380;50.822;15.790;2022-10-18T03:58:29;10.20;21.80
22426;DHT22;11380;50.822;15.790;2022-10-18T04:03:34;9.90;99.90
22426;DHT22;11380;50.822;15.790;2022-10-18T04:08:39;9.80;99.90
22426;DHT22;11380;50.822;15.790;2022-10-18T04:13:44;10.00;99.90
22426;DHT22;11380;50.822;15.790;2022-10-18T04:18:50;10.00;99.90
22426;DHT22;11380;50.822;15.790;2022-10-18T04:23:55;10.10;99.90
22426;DHT22;11380;50.822;15.790;2022-10-18T04:29:01;9.80;51.90
22426;DHT22;11380;50.822;15.790;2022-10-18T04:34:06;9.70;99.90
22426;DHT22;11380;50.822;15.790;2022-10-18T04:39:11;9.80;99.90
22426;DHT22;11380;50.822;15.790;2022-10-18T04:44:17;9.60;99.90
22426;DHT22;11380;50.822;15.790;2022-10-18T04:49:23;9.90;99.90
22426;DHT22;11380;50.822;15.790;2022-10-18T04:54:28;10.00;99.90
22426;DHT22;11380;50.822;15.790;2022-10-18T04:59:34;10.10;1.10
22426;DHT22;11380;50.822;15.790;2022-10-18T05:04:40;9.90;1.00
22426;DHT22;11380;50.822;15.790;2022-10-18T05:09:46;9.60;1.00
22426;DHT22;11380;50.822;15.790;2022-10-18T05:14:51;9.70;38.80
22426;DHT22;11380;50.822;15.790;2022-10-18T05:19:58;9.90;5.30
22426;DHT22;11380;50.822;15.790;2022-10-18T05:25:04;9.70;29.80
22426;DHT22;11380;50.822;15.790;2022-10-18T05:30:10;9.70;99.90
22426;DHT22;11380;50.822;15.790;2022-10-18T05:35:17;9.70;99.90
22426;DHT22;11380;50.822;15.790;2022-10-18T05:40:22;9.60;99.90
22426;DHT22;11380;50.822;15.790;2022-10-18T05:45:27;9.70;67.40
22426;DHT22;11380;50.822;15.790;2022-10-18T05:50:32;9.60;99.90
22426;DHT22;11380;50.822;15.790;2022-10-18T05:55:39;9.70;99.90
22426;DHT22;11380;50.822;15.790;2022-10-18T06:00:44;9.40;99.90
22426;DHT22;11380;50.822;15.790;2022-10-18T06:05:50;9.80;99.90
22426;DHT22;11380;50.822;15.790;2022-10-18T06:10:56;9.60;99.90
22426;DHT22;11380;50.822;15.790;2022-10-18T06:16:01;9.60;99.90
22426;DHT22;11380;50.822;15.790;2022-10-18T06:21:06;9.70;99.90
22426;DHT22;11380;50.822;15.790;2022-10-18T06:26:12;9.90;99.90
22426;DHT22;11380;50.822;15.790;2022-10-18T06:31:18;10.00;99.90
22426;DHT22;11380;50.822;15.790;2022-10-18T06:36:24;10.10;99.90
22426;DHT22;11380;50.822;15.790;2022-10-18T06:41:30;10.20;99.90
22426;DHT22;11380;50.822;15.790;2022-10-18T06:46:36;10.50;99.90
22426;DHT22;11380;50.822;15.790;2022-10-18T06:51:42;10.70;99.90
22426;DHT22;11380;50.822;15.790;2022-10-18T06:56:48;10.90;99.90
22426;DHT22;11380;50.822;15.790;2022-10-18T07:01:53;11.10;99.90
22426;DHT22;11380;50.822;15.790;2022-10-18T07:07:00;11.50;99.90
22426;DHT22;11380;50.822;15.790;2022-10-18T07:12:06;11.80;99.90
22426;DHT22;11380;50.822;15.790;2022-10-18T07:17:11;12.10;99.90
22426;DHT22;11380;50.822;15.790;2022-10-18T07:22:17;12.60;8.80
22426;DHT22;11380;50.822;15.790;2022-10-18T07:27:22;13.00;1.00
22426;DHT22;11380;50.822;15.790;2022-10-18T07:32:27;13.00;1.00
22426;DHT22;11380;50.822;15.790;2022-10-18T07:37:33;13.30;1.00
22426;DHT22;11380;50.822;15.790;2022-10-18T07:42:39;13.90;1.00
22426;DHT22;11380;50.822;15.790;2022-10-18T07:47:43;14.40;1.00
22426;DHT22;11380;50.822;15.790;2022-10-18T07:52:50;14.90;1.00
22426;DHT22;11380;50.822;15.790;2022-10-18T07:57:55;15.20;1.00
22426;DHT22;11380;50.822;15.790;2022-10-18T08:03:00;15.60;1.00
22426;DHT22;11380;50.822;15.790;2022-10-18T08:08:05;15.90;1.00
22426;DHT22;11380;50.822;15.790;2022-10-18T08:13:11;16.40;1.00
22426;DHT22;11380;50.822;15.790;2022-10-18T08:18:17;16.90;1.00
22426;DHT22;11380;50.822;15.790;2022-10-18T08:23:23;17.10;1.00
22426;DHT22;11380;50.822;15.790;2022-10-18T08:28:29;17.70;1.00
22426;DHT22;11380;50.822;15.790;2022-10-18T08:33:35;18.00;1.00
22426;DHT22;11380;50.822;15.790;2022-10-18T08:38:42;18.10;1.00
22426;DHT22;11380;50.822;15.790;2022-10-18T08:44:13;18.10;1.00
22426;DHT22;11380;50.822;15.790;2022-10-18T09:00:13;18.20;99.90
22426;DHT22;11380;50.822;15.790;2022-10-18T09:26:47;19.30;1.00
22426;DHT22;11380;50.822;15.790;2022-10-18T09:37:15;19.90;99.90
22426;DHT22;11380;50.822;15.790;2022-10-18T09:42:35;19.90;99.90
22426;DHT22;11380;50.822;15.790;2022-10-18T09:47:44;20.20;1.00
22426;DHT22;11380;50.822;15.790;2022-10-18T09:53:44;19.80;1.00
22426;DHT22;11380;50.822;15.790;2022-10-18T09:58:02;19.70;99.90
22426;DHT22;11380;50.822;15.790;2022-10-18T10:03:10;19.80;99.90
22426;DHT22;11380;50.822;15.790;2022-10-18T10:08:17;19.70;1.00
22426;DHT22;11380;50.822;15.790;2022-10-18T10:13:25;19.70;1.00
22426;DHT22;11380;50.822;15.790;2022-10-18T10:18:33;19.60;1.00
22426;DHT22;11380;50.822;15.790;2022-10-18T10:23:53;19.70;1.00
22426;DHT22;11380;50.822;15.790;2022-10-18T10:29:00;19.70;1.00
22426;DHT22;11380;50.822;15.790;2022-10-18T10:39:22;19.60;1.00
22426;DHT22;11380;50.822;15.790;2022-10-18T10:44:31;19.20;1.00
22426;DHT22;11380;50.822;15.790;2022-10-18T10:49:42;19.10;1.00
22426;DHT22;11380;50.822;15.790;2022-10-18T10:54:49;19.10;1.00
22426;DHT22;11380;50.822;15.790;2022-10-18T10:59:57;19.30;1.00
22426;DHT22;11380;50.822;15.790;2022-10-18T11:10:29;19.30;1.00
22426;DHT22;11380;50.822;15.790;2022-10-18T11:15:41;19.20;1.00
22426;DHT22;11380;50.822;15.790;2022-10-18T11:20:52;19.20;1.00
22426;DHT22;11380;50.822;15.790;2022-10-18T11:31:31;18.90;1.00
22426;DHT22;11380;50.822;15.790;2022-10-18T11:42:06;18.90;99.90
22426;DHT22;11380;50.822;15.790;2022-10-18T12:03:23;19.00;11.20
22426;DHT22;11380;50.822;15.790;2022-10-18T12:08:33;19.60;99.90
22426;DHT22;11380;50.822;15.790;2022-10-18T12:13:51;19.30;99.90
22426;DHT22;11380;50.822;15.790;2022-10-18T12:19:06;19.30;1.00
22426;DHT22;11380;50.822;15.790;2022-10-18T12:24:10;19.30;1.00
22426;DHT22;11380;50.822;15.790;2022-10-18T12:29:28;19.20;1.00
22426;DHT22;11380;50.822;15.790;2022-10-18T12:34:35;19.40;1.00
22426;DHT22;11380;50.822;15.790;2022-10-18T12:39:44;19.80;1.00
22426;DHT22;11380;50.822;15.790;2022-10-18T12:50:38;19.80;1.00
22426;DHT22;11380;50.822;15.790;2022-10-18T12:55:47;19.80;92.10
22426;DHT22;11380;50.822;15.790;2022-10-18T13:00:57;19.90;1.00
22426;DHT22;11380;50.822;15.790;2022-10-18T13:06:06;19.90;1.00
22426;DHT22;11380;50.822;15.790;2022-10-18T13:11:23;19.90;1.00
22426;DHT22;11380;50.822;15.790;2022-10-18T13:38:02;19.20;1.00
22426;DHT22;11380;50.822;15.790;2022-10-18T14:05:00;16.10;1.00
22426;DHT22;11380;50.822;15.790;2022-10-18T14:10:08;15.60;94.60
22426;DHT22;11380;50.822;15.790;2022-10-18T14:15:24;15.10;99.90
22426;DHT22;11380;50.822;15.790;2022-10-18T14:20:40;14.70;99.90
22426;DHT22;11380;50.822;15.790;2022-10-18T14:26:14;14.50;99.90
22426;DHT22;11380;50.822;15.790;2022-10-18T14:31:20;14.50;99.90
22426;DHT22;11380;50.822;15.790;2022-10-18T14:36:36;14.40;99.90
22426;DHT22;11380;50.822;15.790;2022-10-18T14:41:51;14.40;99.90
22426;DHT22;11380;50.822;15.790;2022-10-18T14:47:12;14.30;99.90
22426;DHT22;11380;50.822;15.790;2022-10-18T14:52:29;14.20;99.90
22426;DHT22;11380;50.822;15.790;2022-10-18T14:57:36;14.10;99.90
22426;DHT22;11380;50.822;15.790;2022-10-18T15:02:43;14.10;99.90
22426;DHT22;11380;50.822;15.790;2022-10-18T15:07:50;14.10;99.90
22426;DHT22;11380;50.822;15.790;2022-10-18T15:12:57;14.00;99.90
22426;DHT22;11380;50.822;15.790;2022-10-18T15:18:13;13.90;99.90
22426;DHT22;11380;50.822;15.790;2022-10-18T15:23:21;14.00;99.90
22426;DHT22;11380;50.822;15.790;2022-10-18T15:28:39;14.00;99.90
22426;DHT22;11380;50.822;15.790;2022-10-18T15:33:46;14.00;99.90
22426;DHT22;11380;50.822;15.790;2022-10-18T15:39:04;14.10;99.90
22426;DHT22;11380;50.822;15.790;2022-10-18T15:44:31;14.10;99.90
22426;DHT22;11380;50.822;15.790;2022-10-18T15:55:01;14.20;99.90
22426;DHT22;11380;50.822;15.790;2022-10-18T16:00:15;14.20;99.90
22426;DHT22;11380;50.822;15.790;2022-10-18T16:05:19;14.30;99.90
22426;DHT22;11380;50.822;15.790;2022-10-18T16:10:24;14.30;99.90
22426;DHT22;11380;50.822;15.790;2022-10-18T16:15:31;13.90;99.90
22426;DHT22;11380;50.822;15.790;2022-10-18T16:20:36;13.80;99.90
22426;DHT22;11380;50.822;15.790;2022-10-18T16:25:43;13.90;99.90
22426;DHT22;11380;50.822;15.790;2022-10-18T16:30:55;13.90;99.90
22426;DHT22;11380;50.822;15.790;2022-10-18T16:36:01;14.10;99.90
22426;DHT22;11380;50.822;15.790;2022-10-18T16:41:10;14.10;99.90
22426;DHT22;11380;50.822;15.790;2022-10-18T16:46:20;13.90;99.90
22426;DHT22;11380;50.822;15.790;2022-10-18T16:51:27;13.80;99.90
22426;DHT22;11380;50.822;15.790;2022-10-18T16:56:36;14.00;99.90
22426;DHT22;11380;50.822;15.790;2022-10-18T17:01:42;14.00;99.90
22426;DHT22;11380;50.822;15.790;2022-10-18T17:06:53;14.10;99.90
22426;DHT22;11380;50.822;15.790;2022-10-18T17:12:04;14.10;99.90
22426;DHT22;11380;50.822;15.790;2022-10-18T17:17:11;13.90;99.90
22426;DHT22;11380;50.822;15.790;2022-10-18T17:22:19;13.80;99.90
22426;DHT22;11380;50.822;15.790;2022-10-18T17:27:25;13.80;99.90
22426;DHT22;11380;50.822;15.790;2022-10-18T17:32:33;13.80;99.90
22426;DHT22;11380;50.822;15.790;2022-10-18T17:37:39;13.60;99.90
22426;DHT22;11380;50.822;15.790;2022-10-18T17:42:49;13.70;99.90
22426;DHT22;11380;50.822;15.790;2022-10-18T17:47:57;13.60;99.90
22426;DHT22;11380;50.822;15.790;2022-10-18T17:53:03;13.60;99.90
22426;DHT22;11380;50.822;15.790;2022-10-18T17:58:09;13.70;99.90
22426;DHT22;11380;50.822;15.790;2022-10-18T18:03:16;13.50;99.90
22426;DHT22;11380;50.822;15.790;2022-10-18T18:08:22;13.60;99.90
22426;DHT22;11380;50.822;15.790;2022-10-18T18:13:29;13.50;99.90
22426;DHT22;11380;50.822;15.790;2022-10-18T18:18:34;13.50;99.90
22426;DHT22;11380;50.822;15.790;2022-10-18T18:23:40;13.40;99.90
22426;DHT22;11380;50.822;15.790;2022-10-18T18:28:47;13.40;99.90
22426;DHT22;11380;50.822;15.790;2022-10-18T18:33:55;13.40;99.90
22426;DHT22;11380;50.822;15.790;2022-10-18T18:39:00;13.40;99.90
22426;DHT22;11380;50.822;15.790;2022-10-18T18:44:07;13.10;99.90
22426;DHT22;11380;50.822;15.790;2022-10-18T18:49:14;13.20;99.90
22426;DHT22;11380;50.822;15.790;2022-10-18T18:54:20;13.10;99.90
22426;DHT22;11380;50.822;15.790;2022-10-18T18:59:27;12.70;99.90
22426;DHT22;11380;50.822;15.790;2022-10-18T19:04:32;13.00;99.90
22426;DHT22;11380;50.822;15.790;2022-10-18T19:09:38;13.10;99.90
22426;DHT22;11380;50.822;15.790;2022-10-18T19:14:45;12.70;99.90
22426;DHT22;11380;50.822;15.790;2022-10-18T19:19:51;12.80;99.90
22426;DHT22;11380;50.822;15.790;2022-10-18T19:24:58;12.70;99.90
22426;DHT22;11380;50.822;15.790;2022-10-18T19:30:10;12.70;99.90
22426;DHT22;11380;50.822;15.790;2022-10-18T19:35:17;12.90;99.90
22426;DHT22;11380;50.822;15.790;2022-10-18T19:40:24;12.90;99.90
22426;DHT22;11380;50.822;15.790;2022-10-18T19:45:30;12.90;99.90
22426;DHT22;11380;50.822;15.790;2022-10-18T19:50:36;12.90;99.90
22426;DHT22;11380;50.822;15.790;2022-10-18T19:55:42;13.00;99.90
22426;DHT22;11380;50.822;15.790;2022-10-18T20:00:51;13.00;99.90
22426;DHT22;11380;50.822;15.790;2022-10-18T20:06:00;13.00;99.90
22426;DHT22;11380;50.822;15.790;2022-10-18T20:11:09;12.90;99.90
22426;DHT22;11380;50.822;15.790;2022-10-18T20:16:17;13.00;99.90
22426;DHT22;11380;50.822;15.790;2022-10-18T20:21:27;13.00;99.90
22426;DHT22;11380;50.822;15.790;2022-10-18T20:26:35;12.60;99.90
22426;DHT22;11380;50.822;15.790;2022-10-18T20:31:40;12.60;99.90
22426;DHT22;11380;50.822;15.790;2022-10-18T20:36:46;12.70;99.90
22426;DHT22;11380;50.822;15.790;2022-10-18T20:41:51;12.90;99.90
22426;DHT22;11380;50.822;15.790;2022-10-18T20:46:56;13.00;99.90
22426;DHT22;11380;50.822;15.790;2022-10-18T20:52:01;12.80;99.90
22426;DHT22;11380;50.822;15.790;2022-10-18T20:57:07;12.80;99.90
22426;DHT22;11380;50.822;15.790;2022-10-18T21:02:13;12.90;99.90
22426;DHT22;11380;50.822;15.790;2022-10-18T21:07:18;13.00;99.90
22426;DHT22;11380;50.822;15.790;2022-10-18T21:12:24;12.90;99.90
22426;DHT22;11380;50.822;15.790;2022-10-18T21:17:33;12.80;99.90
22426;DHT22;11380;50.822;15.790;2022-10-18T21:22:39;12.80;99.90
22426;DHT22;11380;50.822;15.790;2022-10-18T21:27:44;12.90;99.90
22426;DHT22;11380;50.822;15.790;2022-10-18T21:32:49;12.80;99.90
22426;DHT22;11380;50.822;15.790;2022-10-18T21:37:55;12.80;99.90
22426;DHT22;11380;50.822;15.790;2022-10-18T21:43:01;12.60;99.90
22426;DHT22;11380;50.822;15.790;2022-10-18T21:48:06;12.70;99.90
22426;DHT22;11380;50.822;15.790;2022-10-18T21:53:12;12.70;99.90
22426;DHT22;11380;50.822;15.790;2022-10-18T21:58:18;12.80;99.90
22426;DHT22;11380;50.822;15.790;2022-10-18T22:03:23;12.70;99.90
22426;DHT22;11380;50.822;15.790;2022-10-18T22:08:29;12.80;99.90
22426;DHT22;11380;50.822;15.790;2022-10-18T22:13:34;12.70;99.90
22426;DHT22;11380;50.822;15.790;2022-10-18T22:18:40;12.60;99.90
22426;DHT22;11380;50.822;15.790;2022-10-18T22:23:48;12.60;99.90
22426;DHT22;11380;50.822;15.790;2022-10-18T22:28:56;12.60;99.90
22426;DHT22;11380;50.822;15.790;2022-10-18T22:34:05;12.60;99.90
22426;DHT22;11380;50.822;15.790;2022-10-18T22:39:10;12.60;99.90
22426;DHT22;11380;50.822;15.790;2022-10-18T22:44:18;12.50;99.90
22426;DHT22;11380;50.822;15.790;2022-10-18T22:49:22;12.50;99.90
22426;DHT22;11380;50.822;15.790;2022-10-18T22:54:28;12.40;99.90
22426;DHT22;11380;50.822;15.790;2022-10-18T22:59:34;12.40;99.90
22426;DHT22;11380;50.822;15.790;2022-10-18T23:04:39;12.40;99.90
22426;DHT22;11380;50.822;15.790;2022-10-18T23:09:44;12.40;99.90
22426;DHT22;11380;50.822;15.790;2022-10-18T23:14:49;12.30;99.90
22426;DHT22;11380;50.822;15.790;2022-10-18T23:19:54;12.30;99.90
22426;DHT22;11380;50.822;15.790;2022-10-18T23:25:00;12.30;99.90
22426;DHT22;11380;50.822;15.790;2022-10-18T23:30:05;12.30;99.90
22426;DHT22;11380;50.822;15.790;2022-10-18T23:35:11;12.20;99.90
22426;DHT22;11380;50.822;15.790;2022-10-18T23:40:17;12.20;99.90
22426;DHT22;11380;50.822;15.790;2022-10-18T23:45:22;12.30;99.90
22426;DHT22;11380;50.822;15.790;2022-10-18T23:50:28;12.30;99.90
22426;DHT22;11380;50.822;15.790;2022-10-18T23:55:34;12.30;99.90
